Time;durP1;ratioP1;P1;durP2;ratioP2;P2;SDS_P1;SDS_P2;PMS_P1;PMS_P2;Temp;Humidity;BMP_temperature;BMP_pressure;BME280_temperature;BME280_humidity;BME280_pressure;Samples;Min_cycle;Max_cycle;Signal;HPM_P1;HPM_P2
2023/01/27 00:04:02;;;;;;;1999.90;999.90;;;;;;;4.22;100.00;102410.75;10457384;28;20053;-66
2023/01/27 00:09:04;;;;;;;1999.90;999.90;;;;;;;4.31;100.00;102404.69;10459412;28;20056;-66
2023/01/27 00:14:07;;;;;;;1999.90;999.90;;;;;;;4.24;100.00;102407.31;10459225;28;20045;-66
2023/01/27 00:19:09;;;;;;;1999.90;999.90;;;;;;;4.24;100.00;102412.50;10458904;28;20049;-66
2023/01/27 00:29:35;;;;;;;1999.90;999.90;;;;;;;4.30;100.00;102406.41;10443678;28;20049;-66
2023/01/27 00:34:40;;;;;;;1999.90;999.90;;;;;;;4.39;100.00;102401.19;10457316;28;20041;-67
2023/01/27 00:39:42;;;;;;;1999.90;999.90;;;;;;;4.26;100.00;102412.50;10456893;28;20057;-66
2023/01/27 00:45:47;;;;;;;1999.90;999.90;;;;;;;4.25;100.00;102408.16;10456941;28;20048;-66
2023/01/27 00:50:07;;;;;;;1999.90;999.90;;;;;;;4.17;100.00;102404.75;10457279;28;20049;-66
2023/01/27 00:55:10;;;;;;;1999.90;999.90;;;;;;;4.03;100.00;102412.59;10458298;28;20041;-66
2023/01/27 01:00:14;;;;;;;1999.90;999.90;;;;;;;3.95;100.00;102410.06;10439058;28;20056;-66
2023/01/27 01:05:17;;;;;;;1999.90;999.90;;;;;;;4.16;100.00;102418.59;10456971;28;20057;-66
2023/01/27 01:10:19;;;;;;;1999.90;999.90;;;;;;;4.03;100.00;102420.38;10422499;28;20056;-66
2023/01/27 01:15:21;;;;;;;1999.90;999.90;;;;;;;4.19;100.00;102427.22;10457150;28;20041;-66
2023/01/27 01:20:24;;;;;;;1999.90;999.90;;;;;;;4.12;100.00;102425.53;10456985;28;20056;-66
2023/01/27 01:25:26;;;;;;;1999.90;999.90;;;;;;;4.02;100.00;102436.81;10438573;28;20045;-66
2023/01/27 01:30:28;;;;;;;1999.90;999.90;;;;;;;4.04;100.00;102432.47;10456093;28;20455;-66
2023/01/27 01:35:31;;;;;;;1999.90;999.90;;;;;;;4.08;100.00;102434.16;10464838;28;20415;-66
2023/01/27 01:40:38;;;;;;;1999.90;999.90;;;;;;;4.07;100.00;102437.66;10469176;28;20053;-66
2023/01/27 01:45:47;;;;;;;1999.90;999.90;;;;;;;4.03;100.00;102447.13;10451629;28;20044;-66
2023/01/27 01:50:57;;;;;;;1999.90;999.90;;;;;;;4.27;100.00;102446.19;10470584;28;20099;-66
2023/01/27 01:56:05;;;;;;;1999.90;999.90;;;;;;;3.95;100.00;102440.25;10457021;28;20485;-66
2023/01/27 02:01:08;;;;;;;1999.90;999.90;;;;;;;4.07;100.00;102440.25;10468228;28;20546;-66
2023/01/27 02:06:12;;;;;;;1999.90;999.90;;;;;;;4.08;100.00;102445.41;10466656;28;20481;-66
2023/01/27 02:11:14;;;;;;;1999.90;999.90;;;;;;;3.98;100.00;102443.69;10467593;28;20045;-66
2023/01/27 02:16:16;;;;;;;1999.90;999.90;;;;;;;4.00;100.00;102454.06;10469718;28;20052;-66
2023/01/27 02:21:19;;;;;;;1999.90;999.90;;;;;;;4.06;100.00;102452.31;10451820;28;20057;-66
2023/01/27 02:26:25;;;;;;;1999.90;999.90;;;;;;;3.89;100.00;102456.72;10467457;28;20431;-66
2023/01/27 02:31:27;;;;;;;1999.90;999.90;;;;;;;4.16;100.00;102460.94;10469404;28;20045;-66
2023/01/27 02:36:33;;;;;;;1999.90;999.90;;;;;;;4.00;100.00;102456.66;10467557;28;20136;-66
2023/01/27 02:41:53;;;;;;;1999.90;999.90;;;;;;;4.00;100.00;102462.72;10467479;28;20377;-66
2023/01/27 02:46:55;;;;;;;1999.90;999.90;;;;;;;4.05;100.00;102460.09;10463577;28;20060;-66
2023/01/27 02:51:57;;;;;;;1999.90;999.90;;;;;;;4.15;100.00;102456.59;10455468;28;20485;-66
2023/01/27 02:57:00;;;;;;;1999.90;999.90;;;;;;;4.04;100.00;102461.84;10462240;28;20053;-66
2023/01/27 03:02:02;;;;;;;1999.90;999.90;;;;;;;3.96;100.00;102462.72;10460806;28;20048;-66
2023/01/27 03:07:05;;;;;;;1999.90;999.90;;;;;;;3.84;100.00;102467.06;10458756;28;20059;-66
2023/01/27 03:12:19;;;;;;;1999.90;999.90;;;;;;;3.96;100.00;102468.78;10461184;28;20049;-66
2023/01/27 03:22:42;;;;;;;1999.90;999.90;;;;;;;3.83;100.00;102482.63;10446360;28;20045;-65
2023/01/27 03:27:44;;;;;;;1999.90;999.90;;;;;;;3.50;100.00;102476.66;10459769;28;20459;-65
2023/01/27 03:32:47;;;;;;;1999.90;999.90;;;;;;;3.63;100.00;102485.25;10460814;28;20059;-65
2023/01/27 03:48:31;;;;;;;1999.90;999.90;;;;;;;3.60;100.00;102496.50;10452478;28;20144;-66
2023/01/27 03:53:34;;;;;;;1999.90;999.90;;;;;;;3.63;100.00;102501.69;10458877;28;20044;-66
2023/01/27 03:58:37;;;;;;;1999.90;999.90;;;;;;;3.69;100.00;102504.22;10457398;28;20052;-66
2023/01/27 04:09:00;;;;;;;1999.90;999.90;;;;;;;3.81;100.00;102507.69;10458410;28;20052;-66
2023/01/27 04:14:07;;;;;;;1999.90;999.90;;;;;;;3.94;100.00;102498.16;10458119;28;20071;-66
2023/01/27 04:19:11;;;;;;;1999.90;999.90;;;;;;;3.65;100.00;102506.84;10458100;28;20048;-66
2023/01/27 04:24:21;;;;;;;1999.90;999.90;;;;;;;3.68;100.00;102506.81;10457110;28;20111;-66
2023/01/27 04:29:28;;;;;;;1999.90;999.90;;;;;;;3.52;100.00;102513.75;10457435;28;20118;-66
2023/01/27 04:34:31;;;;;;;1999.90;999.90;;;;;;;3.69;100.00;102516.34;10458431;28;20107;-66
2023/01/27 04:39:34;;;;;;;1999.90;999.90;;;;;;;3.55;100.00;102516.34;10457763;28;20125;-66
2023/01/27 04:44:36;;;;;;;1999.90;999.90;;;;;;;3.54;100.00;102518.06;10439534;28;20094;-66
2023/01/27 04:49:38;;;;;;;1999.90;999.90;;;;;;;3.56;100.00;102515.47;10456497;28;20053;-66
2023/01/27 04:54:41;;;;;;;1999.90;999.90;;;;;;;3.67;100.00;102523.25;10457819;28;20041;-66
2023/01/27 04:59:43;;;;;;;1999.90;999.90;;;;;;;3.81;100.00;102526.66;10456229;28;20060;-66
2023/01/27 05:04:46;;;;;;;1999.90;999.90;;;;;;;3.82;100.00;102522.38;10457221;28;20045;-66
2023/01/27 05:09:48;;;;;;;1999.90;999.90;;;;;;;3.84;100.00;102523.22;10456836;28;20049;-66
2023/01/27 05:14:50;;;;;;;1999.90;999.90;;;;;;;3.95;100.00;102521.50;10454782;28;20472;-66
2023/01/27 05:19:53;;;;;;;1999.90;999.90;;;;;;;3.94;100.00;102518.91;10439021;23;20141;-70
2023/01/27 05:24:55;;;;;;;1999.90;999.90;;;;;;;4.06;100.00;102524.91;10356810;28;20057;-69
2023/01/27 05:29:57;;;;;;;1999.90;999.90;;;;;;;3.90;100.00;102521.50;10374231;28;20496;-69
2023/01/27 05:35:00;;;;;;;1999.90;999.90;;;;;;;3.88;100.00;102528.41;10374079;28;20104;-69
2023/01/27 05:40:02;;;;;;;1999.90;999.90;;;;;;;3.98;100.00;102526.63;10373770;28;20076;-69
2023/01/27 05:45:05;;;;;;;1999.90;999.90;;;;;;;4.02;100.00;102530.13;10372138;28;20479;-70
2023/01/27 05:50:08;;;;;;;1999.90;999.90;;;;;;;4.17;100.00;102531.78;10373797;28;20400;-69
2023/01/27 05:55:10;;;;;;;1999.90;999.90;;;;;;;4.00;100.00;102532.72;10372083;28;20050;-69
2023/01/27 06:00:14;;;;;;;1999.90;999.90;;;;;;;4.05;100.00;102533.56;10373537;28;20410;-69
2023/01/27 06:05:16;;;;;;;1999.90;999.90;;;;;;;3.92;100.00;102539.63;10373385;28;20436;-69
2023/01/27 06:10:18;;;;;;;1999.90;999.90;;;;;;;3.72;100.00;102543.09;10321906;28;20058;-69
2023/01/27 06:15:21;;;;;;;1999.90;999.90;;;;;;;3.72;100.00;102548.28;10333399;28;20050;-69
2023/01/27 06:20:24;;;;;;;1999.90;999.90;;;;;;;3.76;100.00;102549.13;10334138;28;20065;-69
2023/01/27 06:25:26;;;;;;;1999.90;999.90;;;;;;;3.86;100.00;102563.81;10307776;28;20101;-69
2023/01/27 06:30:28;;;;;;;1999.90;999.90;;;;;;;3.69;100.00;102568.16;10340070;28;20086;-69
2023/01/27 06:35:32;;;;;;;1999.90;999.90;;;;;;;3.64;100.00;102568.13;10362769;28;20041;-69
2023/01/27 06:40:35;;;;;;;1999.90;999.90;;;;;;;3.75;100.00;102569.84;10362864;28;20409;-69
2023/01/27 06:45:37;;;;;;;1999.90;999.90;;;;;;;3.69;100.00;102570.75;10363247;28;20100;-70
2023/01/27 06:50:40;;;;;;;1999.90;999.90;;;;;;;3.38;100.00;102580.22;10380512;28;20054;-70
2023/01/27 06:55:43;;;;;;;1999.90;999.90;;;;;;;3.45;100.00;102581.97;10379675;28;20119;-69
2023/01/27 07:00:46;;;;;;;1999.90;999.90;;;;;;;3.46;100.00;102587.16;10380144;28;20060;-69
2023/01/27 07:05:49;;;;;;;1999.90;999.90;;;;;;;3.66;100.00;102588.88;10379172;28;20448;-69
2023/01/27 07:10:51;;;;;;;1999.90;999.90;;;;;;;3.53;100.00;102587.97;10362508;28;20057;-69
2023/01/27 07:15:54;;;;;;;1999.90;999.90;;;;;;;3.83;100.00;102594.03;10379172;28;20378;-69
2023/01/27 07:20:57;;;;;;;1999.90;999.90;;;;;;;3.72;100.00;102602.69;10345556;28;20085;-69
2023/01/27 07:26:02;;;;;;;1999.90;999.90;;;;;;;3.70;100.00;102604.41;10379137;28;20050;-69
2023/01/27 07:31:13;;;;;;;1999.90;999.90;;;;;;;3.69;100.00;102623.41;10378531;28;20108;-69
2023/01/27 07:36:16;;;;;;;1999.90;999.90;;;;;;;3.78;100.00;102621.69;10378781;28;20125;-69
2023/01/27 07:41:18;;;;;;;1999.90;999.90;;;;;;;3.72;100.00;102632.91;10361175;28;20054;-69
2023/01/27 07:46:21;;;;;;;1999.90;999.90;;;;;;;3.67;100.00;102645.00;10361351;28;20061;-69
2023/01/27 07:51:23;;;;;;;1999.90;999.90;;;;;;;3.55;100.00;102632.91;10361108;28;20050;-69
2023/01/27 07:56:26;;;;;;;1999.90;999.90;;;;;;;3.72;100.00;102627.75;10377354;28;20501;-69
2023/01/27 08:01:28;;;;;;;1999.90;999.90;;;;;;;3.64;100.00;102632.03;10360329;28;20049;-69
2023/01/27 08:06:31;;;;;;;1999.90;999.90;;;;;;;3.58;100.00;102624.25;10377479;28;20056;-69
2023/01/27 08:11:33;;;;;;;1999.90;999.90;;;;;;;3.64;100.00;102632.91;10377765;28;20057;-69
2023/01/27 08:16:36;;;;;;;1999.90;999.90;;;;;;;3.55;100.00;102638.09;10359210;28;20489;-70
2023/01/27 08:21:38;;;;;;;1999.90;999.90;;;;;;;3.61;100.00;102640.66;10376212;28;20116;-69
2023/01/27 08:26:41;;;;;;;1999.90;999.90;;;;;;;3.67;100.00;102643.28;10376331;28;20049;-69
2023/01/27 08:31:43;;;;;;;1999.90;999.90;;;;;;;3.70;100.00;102655.38;10376072;28;20056;-70
2023/01/27 08:36:45;;;;;;;1999.90;999.90;;;;;;;3.74;100.00;102658.81;10375814;28;20482;-69
2023/01/27 08:41:48;;;;;;;1999.90;999.90;;;;;;;3.75;100.00;102668.31;10376645;28;20053;-69
2023/01/27 08:46:50;;;;;;;1999.90;999.90;;;;;;;3.81;100.00;102676.94;10357236;28;20444;-69
2023/01/27 08:51:52;;;;;;;1999.90;999.90;;;;;;;3.77;100.00;102683.00;10375275;28;20437;-69
2023/01/27 08:56:55;;;;;;;1999.90;999.90;;;;;;;3.74;100.00;102687.34;10375158;28;20050;-69
2023/01/27 09:01:57;;;;;;;1999.90;999.90;;;;;;;3.80;100.00;102680.44;10374979;28;20049;-69
2023/01/27 09:06:59;;;;;;;1999.90;999.90;;;;;;;3.87;100.00;102679.56;10374785;28;20421;-69
2023/01/27 09:12:02;;;;;;;1999.90;999.90;;;;;;;3.75;100.00;102684.75;10375410;28;20052;-69
2023/01/27 09:17:04;;;;;;;1999.90;999.90;;;;;;;4.02;100.00;102691.66;10374618;28;20042;-69
2023/01/27 09:22:07;;;;;;;1999.90;999.90;;;;;;;3.83;100.00;102695.09;10374464;28;20432;-69
2023/01/27 09:27:09;;;;;;;1999.90;999.90;;;;;;;3.68;100.00;102706.28;10374925;28;20108;-69
2023/01/27 09:32:12;;;;;;;1999.90;999.90;;;;;;;3.84;100.00;102707.22;10341008;28;20054;-69
2023/01/27 09:37:14;;;;;;;1999.90;999.90;;;;;;;4.00;100.00;102708.97;10357333;28;20389;-69
2023/01/27 09:42:51;;;;;;;1999.90;999.90;;;;;;;3.89;100.00;102711.53;10374404;28;20481;-69
2023/01/27 09:48:03;;;;;;;1999.90;999.90;;;;;;;4.18;100.00;102721.03;10341717;28;20506;-70
2023/01/27 09:53:08;;;;;;;1999.90;999.90;;;;;;;4.25;100.00;102721.91;10374507;28;20054;-69
2023/01/27 09:58:22;;;;;;;1999.90;999.90;;;;;;;4.26;100.00;102721.91;10381250;28;20061;-69
2023/01/27 10:03:45;;;;;;;1999.90;999.90;;;;;;;4.16;100.00;102721.91;10381740;28;20050;-69
2023/01/27 10:09:34;;;;;;;1999.90;999.90;;;;;;;4.19;100.00;102722.78;10365292;28;20054;-69
2023/01/27 10:14:50;;;;;;;1999.90;999.90;;;;;;;4.25;100.00;102714.13;10351695;28;20128;-69
2023/01/27 10:20:12;;;;;;;1999.90;999.90;;;;;;;4.15;100.00;102717.59;10381083;28;20062;-69
2023/01/27 10:25:28;;;;;;;1999.90;999.90;;;;;;;4.27;100.00;102720.19;10381544;28;20042;-69
2023/01/27 10:30:35;;;;;;;1999.90;999.90;;;;;;;4.19;100.00;102709.81;10363999;28;20049;-69
2023/01/27 10:35:44;;;;;;;1999.90;999.90;;;;;;;4.39;100.00;102699.44;10381088;28;20129;-69
2023/01/27 10:40:47;;;;;;;1999.90;999.90;;;;;;;4.47;100.00;102700.28;10381248;28;20061;-69
2023/01/27 10:46:10;;;;;;;1999.90;999.90;;;;;;;4.33;100.00;102694.25;10380722;28;20085;-69
2023/01/27 10:51:46;;;;;;;1999.90;999.90;;;;;;;4.56;100.00;102701.16;10381121;28;20049;-70
2023/01/27 10:57:24;;;;;;;1999.90;999.90;;;;;;;4.61;100.00;102700.25;10376955;28;20489;-69
2023/01/27 11:02:29;;;;;;;1999.90;999.90;;;;;;;4.55;100.00;102697.66;10356942;28;20131;-69
2023/01/27 11:07:33;;;;;;;1999.90;999.90;;;;;;;4.44;100.00;102704.63;10361684;28;20052;-69
2023/01/27 11:12:38;;;;;;;1999.90;999.90;;;;;;;4.62;100.00;102698.53;10361824;28;20416;-70
2023/01/27 11:18:04;;;;;;;1999.90;999.90;;;;;;;4.94;100.00;102689.78;10361837;28;20050;-70
2023/01/27 11:23:09;;;;;;;1999.90;999.90;;;;;;;5.00;100.00;102690.63;10361234;28;20111;-69
2023/01/27 11:28:36;;;;;;;1999.90;999.90;;;;;;;4.94;100.00;102680.28;10361496;28;20045;-69
2023/01/27 11:34:15;;;;;;;1999.90;999.90;;;;;;;5.12;100.00;102681.91;10361664;28;20057;-69
2023/01/27 11:39:18;;;;;;;1999.90;999.90;;;;;;;5.43;100.00;102670.50;10361353;28;20104;-70
2023/01/27 11:44:26;;;;;;;1999.90;999.90;;;;;;;6.04;99.44;102667.50;10378465;28;20046;-69
2023/01/27 11:49:31;;;;;;;1999.90;999.90;;;;;;;5.91;97.49;102668.47;10361058;28;20053;-70
2023/01/27 11:54:43;;;;;;;1999.90;999.90;;;;;;;5.77;97.91;102673.75;10378115;28;20081;-69
2023/01/27 11:59:47;;;;;;;1999.90;999.90;;;;;;;5.97;97.06;102664.97;10359989;28;20507;-70
2023/01/27 12:05:08;;;;;;;1999.90;999.90;;;;;;;5.63;97.50;102666.06;10359621;28;20050;-69
2023/01/27 12:10:30;;;;;;;1999.90;999.90;;;;;;;5.61;100.00;102669.53;10376883;28;20049;-70
2023/01/27 12:15:33;;;;;;;1999.90;999.90;;;;;;;5.22;99.86;102657.63;10377358;28;20064;-70
2023/01/27 12:20:44;;;;;;;1999.90;999.90;;;;;;;5.33;100.00;102659.31;10343555;28;20074;-70
2023/01/27 12:25:55;;;;;;;1999.90;999.90;;;;;;;5.42;100.00;102650.63;10359616;28;20046;-70
2023/01/27 12:31:28;;;;;;;1999.90;999.90;;;;;;;5.41;99.60;102649.72;10359467;28;20064;-70
2023/01/27 12:36:41;;;;;;;1999.90;999.90;;;;;;;5.34;99.90;102640.25;10343425;28;20050;-70
2023/01/27 12:41:43;;;;;;;1999.90;999.90;;;;;;;5.89;100.00;102631.22;10358416;28;20551;-70
2023/01/27 12:47:01;;;;;;;1999.90;999.90;;;;;;;5.88;96.84;102629.47;10376172;28;20057;-70
2023/01/27 12:52:07;;;;;;;1999.90;999.90;;;;;;;5.70;96.92;102631.38;10358894;28;20050;-70
2023/01/27 12:57:14;;;;;;;1999.90;999.90;;;;;;;5.49;99.58;102639.31;10342688;28;20045;-70
2023/01/27 13:02:20;;;;;;;1999.90;999.90;;;;;;;5.55;99.29;102623.69;10358469;28;20057;-70
2023/01/27 13:07:29;;;;;;;1999.90;999.90;;;;;;;5.53;99.15;102631.50;10375501;28;20052;-70
2023/01/27 13:12:46;;;;;;;1999.90;999.90;;;;;;;5.38;98.16;102623.81;10358012;28;20053;-70
2023/01/27 13:17:50;;;;;;;1999.90;999.90;;;;;;;5.68;97.63;102630.53;10357299;28;20485;-70
2023/01/27 13:23:03;;;;;;;1999.90;999.90;;;;;;;5.68;98.06;102627.91;10357038;28;20057;-71
2023/01/27 13:28:07;;;;;;;1999.90;999.90;;;;;;;5.57;97.68;102632.31;10357606;28;20050;-70
2023/01/27 13:33:26;;;;;;;1999.90;999.90;;;;;;;5.57;96.69;102633.19;10357066;28;20060;-71
2023/01/27 13:38:46;;;;;;;1999.90;999.90;;;;;;;5.67;97.99;102636.56;10374614;28;20481;-70
2023/01/27 13:44:02;;;;;;;1999.90;999.90;;;;;;;5.37;94.01;102632.47;10350043;28;20374;-70
2023/01/27 13:49:22;;;;;;;1999.90;999.90;;;;;;;5.51;95.63;102634.94;10357158;28;20053;-69
2023/01/27 13:54:24;;;;;;;1999.90;999.90;;;;;;;5.34;93.77;102638.50;10356777;28;20485;-69
2023/01/27 13:59:29;;;;;;;1999.90;999.90;;;;;;;5.37;94.69;102635.91;10356316;28;20488;-69
2023/01/27 14:05:09;;;;;;;1999.90;999.90;;;;;;;5.26;95.11;102642.91;10374057;28;20453;-69
2023/01/27 14:10:31;;;;;;;1999.90;999.90;;;;;;;5.12;93.14;102648.16;10374148;28;20104;-69
2023/01/27 14:15:53;;;;;;;1999.90;999.90;;;;;;;5.07;94.47;102652.53;10356932;28;20050;-70
2023/01/27 14:21:10;;;;;;;1999.90;999.90;;;;;;;5.01;97.10;102656.00;10356140;28;20093;-69
2023/01/27 14:26:34;;;;;;;1999.90;999.90;;;;;;;4.93;96.07;102657.78;10356386;28;20096;-69
2023/01/27 14:31:57;;;;;;;1999.90;999.90;;;;;;;4.94;95.50;102663.81;10373703;28;20058;-70
2023/01/27 14:37:21;;;;;;;1999.90;999.90;;;;;;;5.06;94.05;102668.09;10355635;28;20408;-69
2023/01/27 14:42:29;;;;;;;1999.90;999.90;;;;;;;4.88;96.59;102675.09;10376169;28;20092;-70
2023/01/27 14:47:43;;;;;;;1999.90;999.90;;;;;;;5.01;96.79;102679.38;10362683;28;20390;-70
2023/01/27 14:53:05;;;;;;;1999.90;999.90;;;;;;;4.86;98.04;102671.66;10363775;28;20061;-70
2023/01/27 14:58:07;;;;;;;1999.90;999.90;;;;;;;5.15;98.34;102679.31;10380389;28;20108;-69
2023/01/27 15:03:41;;;;;;;1999.90;999.90;;;;;;;5.08;95.58;102682.81;10380054;28;20050;-69
2023/01/27 15:08:52;;;;;;;1999.90;999.90;;;;;;;5.07;95.64;102675.88;10379846;28;20053;-69
2023/01/27 15:14:18;;;;;;;1999.90;999.90;;;;;;;4.93;97.13;102685.47;10362462;28;20100;-69
2023/01/27 15:19:23;;;;;;;1999.90;999.90;;;;;;;4.85;98.05;102690.69;10361961;28;20065;-69
2023/01/27 15:24:41;;;;;;;1999.90;999.90;;;;;;;4.95;96.75;102692.38;10379351;28;20100;-69
2023/01/27 15:29:44;;;;;;;1999.90;999.90;;;;;;;4.96;97.42;102695.81;10379158;28;20084;-70
2023/01/27 15:34:52;;;;;;;1999.90;999.90;;;;;;;4.75;98.96;102700.22;10360920;28;20049;-69
2023/01/27 15:40:04;;;;;;;1999.90;999.90;;;;;;;4.66;100.00;102708.03;10360738;28;20054;-69
2023/01/27 15:45:28;;;;;;;1999.90;999.90;;;;;;;4.82;100.00;102708.84;10344638;28;20042;-69
2023/01/27 15:50:33;;;;;;;1999.90;999.90;;;;;;;4.72;100.00;102720.97;10361010;28;20078;-69
2023/01/27 15:55:37;;;;;;;1999.90;999.90;;;;;;;4.61;100.00;102712.38;10360373;28;20053;-69
2023/01/27 16:00:41;;;;;;;1999.90;999.90;;;;;;;4.64;100.00;102709.78;10360628;28;20045;-69
2023/01/27 16:06:16;;;;;;;1999.90;999.90;;;;;;;4.48;100.00;102708.94;10360892;28;20046;-69
2023/01/27 16:11:22;;;;;;;1999.90;999.90;;;;;;;4.68;100.00;102708.91;10360590;28;20053;-69
2023/01/27 16:16:30;;;;;;;1999.90;999.90;;;;;;;4.40;100.00;102713.25;10377340;28;20048;-69
2023/01/27 16:21:49;;;;;;;1999.90;999.90;;;;;;;4.26;100.00;102716.72;10376497;28;20060;-69
2023/01/27 16:27:14;;;;;;;1999.90;999.90;;;;;;;4.59;100.00;102712.38;10360425;28;20054;-69
2023/01/27 16:32:19;;;;;;;1999.90;999.90;;;;;;;4.83;98.89;102714.03;10376848;28;20058;-69
2023/01/27 16:37:31;;;;;;;1999.90;999.90;;;;;;;4.66;98.68;102726.19;10359316;28;20046;-69
2023/01/27 16:42:36;;;;;;;1999.90;999.90;;;;;;;4.64;100.00;102730.53;10359570;28;20061;-69
2023/01/27 16:47:46;;;;;;;1999.90;999.90;;;;;;;4.50;100.00;102734.88;10358243;28;20378;-69
2023/01/27 16:52:48;;;;;;;1999.90;999.90;;;;;;;4.44;100.00;102736.59;10358873;28;20049;-69
2023/01/27 16:57:52;;;;;;;1999.90;999.90;;;;;;;4.82;100.00;102745.19;10375221;28;20056;-69
2023/01/27 17:02:58;;;;;;;1999.90;999.90;;;;;;;4.47;100.00;102746.09;10375042;28;20045;-69
2023/01/27 17:08:15;;;;;;;1999.90;999.90;;;;;;;4.72;100.00;102759.91;10357631;28;20052;-69
2023/01/27 17:13:33;;;;;;;1999.90;999.90;;;;;;;4.57;100.00;102759.94;10375404;28;20054;-69
2023/01/27 17:18:38;;;;;;;1999.90;999.90;;;;;;;4.47;100.00;102761.66;10375278;28;20057;-69
2023/01/27 17:23:59;;;;;;;1999.90;999.90;;;;;;;4.63;100.00;102768.56;10359059;28;20054;-69
2023/01/27 17:29:02;;;;;;;1999.90;999.90;;;;;;;4.25;100.00;102781.53;10374964;28;20057;-69
2023/01/27 17:34:05;;;;;;;1999.90;999.90;;;;;;;4.49;100.00;102783.31;10364097;23;20073;-68
